Time;durP1;ratioP1;P1;durP2;ratioP2;P2;SDS_P1;SDS_P2;PMS_P1;PMS_P2;Temp;Humidity;BMP_temperature;BMP_pressure;BME280_temperature;BME280_humidity;BME280_pressure;Samples;Min_cycle;Max_cycle;Signal;HPM_P1;HPM_P2
2022/01/04 08:11:52;;;;;;;5.43;2.90;;;;;;;;;;12076764;22;25354947;-80
2022/01/04 08:16:53;;;;;;;6.20;3.22;;;;;;;;;;13197029;22;20013;-82
2022/01/04 08:21:54;;;;;;;4.60;3.25;;;;;;;;;;13175182;22;20005;-81
2022/01/04 08:26:55;;;;;;;5.45;3.72;;;;;;;;;;13169260;22;19998;-82
2022/01/04 08:31:56;;;;;;;4.38;3.70;;;;;;;;;;13168272;22;20338;-80
2022/01/04 08:36:57;;;;;;;5.88;4.38;;;;;;;;;;13167938;22;19998;-80
2022/01/04 08:42:02;;;;;;;6.38;4.45;;;;;;;;;;13197573;22;20326;-82
2022/01/04 08:47:03;;;;;;;5.57;3.97;;;;;;;;;;13197873;22;20070;-81
2022/01/04 08:52:05;;;;;;;5.13;3.85;;;;;;;;;;13169207;22;20051;-83
2022/01/04 08:57:07;;;;;;;5.00;3.60;;;;;;;;;;13197241;22;20005;-81
2022/01/04 09:02:09;;;;;;;7.13;4.28;;;;;;;;;;13167655;22;20022;-82
2022/01/04 09:07:10;;;;;;;6.25;4.15;;;;;;;;;;13193981;22;20399;-80
2022/01/04 09:12:13;;;;;;;5.90;3.85;;;;;;;;;;13165429;22;20006;-81
2022/01/04 09:22:37;;;;;;;5.40;3.97;;;;;;;;;;13196653;22;20006;-82
2022/01/04 09:27:39;;;;;;;5.00;3.60;;;;;;;;;;13166083;22;20401;-82
2022/01/04 09:32:40;;;;;;;5.20;3.40;;;;;;;;;;13165436;22;20017;-82
2022/01/04 09:37:41;;;;;;;7.85;3.72;;;;;;;;;;13165567;22;20049;-81
2022/01/04 09:42:42;;;;;;;6.93;3.70;;;;;;;;;;13167530;22;20057;-81
2022/01/04 09:47:43;;;;;;;4.35;3.30;;;;;;;;;;13181437;22;20006;-80
2022/01/04 09:52:49;;;;;;;5.45;3.90;;;;;;;;;;13172253;22;20059;-80
2022/01/04 09:57:50;;;;;;;7.97;4.40;;;;;;;;;;13174340;22;20013;-80
2022/01/04 10:02:52;;;;;;;5.40;4.25;;;;;;;;;;13172160;22;20007;-80
2022/01/04 10:08:00;;;;;;;5.65;4.50;;;;;;;;;;13169141;22;20462;-81
2022/01/04 10:13:02;;;;;;;6.80;4.22;;;;;;;;;;13201030;22;19986;-80
2022/01/04 10:18:13;;;;;;;5.40;4.00;;;;;;;;;;13169095;22;20100;-81
2022/01/04 10:23:18;;;;;;;5.90;4.85;;;;;;;;;;13172108;22;20444;-81
2022/01/04 10:28:29;;;;;;;6.10;4.65;;;;;;;;;;13177210;22;20505;-81
2022/01/04 10:33:32;;;;;;;5.00;3.83;;;;;;;;;;13174367;22;20002;-82
2022/01/04 10:38:34;;;;;;;5.70;4.03;;;;;;;;;;13207631;22;20046;-81
2022/01/04 10:43:43;;;;;;;6.57;5.40;;;;;;;;;;13175295;22;20036;-83
2022/01/04 10:48:45;;;;;;;6.65;5.95;;;;;;;;;;13174441;22;20048;-81
2022/01/04 10:53:48;;;;;;;5.90;4.45;;;;;;;;;;13169594;22;20062;-80
2022/01/04 10:58:50;;;;;;;5.32;3.88;;;;;;;;;;13195400;22;20454;-81
2022/01/04 11:04:11;;;;;;;7.88;4.70;;;;;;;;;;13165154;22;20018;-81
2022/01/04 11:09:12;;;;;;;;;;;;;;;;;;13165703;22;20155;-81
2022/01/04 11:14:16;;;;;;;6.32;4.18;;;;;;;;;;13166291;22;19979;-80
2022/01/04 11:19:19;;;;;;;7.70;4.55;;;;;;;;;;13168724;22;20279;-82
2022/01/04 11:24:23;;;;;;;6.63;4.43;;;;;;;;;;13170203;22;20323;-80
2022/01/04 11:29:26;;;;;;;5.32;4.15;;;;;;;;;;13173652;22;20005;-82
2022/01/04 11:34:36;;;;;;;5.88;4.60;;;;;;;;;;13176030;22;20023;-81
2022/01/04 11:39:47;;;;;;;5.07;3.93;;;;;;;;;;13177069;22;20060;-82
2022/01/04 11:44:55;;;;;;;5.95;4.25;;;;;;;;;;13172694;22;20006;-81
2022/01/04 11:50:04;;;;;;;7.60;4.38;;;;;;;;;;13166363;22;20330;-81
2022/01/04 11:55:15;;;;;;;5.75;4.47;;;;;;;;;;13171883;22;20002;-81
2022/01/04 12:00:36;;;;;;;6.53;4.35;;;;;;;;;;13169803;22;20077;-82
2022/01/04 12:05:39;;;;;;;6.55;4.18;;;;;;;;;;13199045;22;20389;-81
2022/01/04 12:10:42;;;;;;;8.60;4.50;;;;;;;;;;13167349;22;20024;-81
2022/01/04 12:15:49;;;;;;;6.35;4.18;;;;;;;;;;13167052;22;20491;-81
2022/01/04 12:20:57;;;;;;;6.20;4.65;;;;;;;;;;13167643;22;20014;-81
2022/01/04 12:26:11;;;;;;;8.02;5.93;;;;;;;;;;13169571;22;20434;-81
2022/01/04 12:31:19;;;;;;;10.35;6.78;;;;;;;;;;13166593;22;20430;-81
2022/01/04 12:36:35;;;;;;;11.60;8.75;;;;;;;;;;13192386;22;20382;-80
2022/01/04 12:41:37;;;;;;;9.10;7.53;;;;;;;;;;13168887;22;20074;-81
2022/01/04 12:46:42;;;;;;;10.85;7.55;;;;;;;;;;13198445;22;20075;-80
2022/01/04 12:51:50;;;;;;;10.57;7.43;;;;;;;;;;13170470;22;20089;-80
2022/01/04 12:56:56;;;;;;;9.90;6.30;;;;;;;;;;13173835;22;20010;-79
2022/01/04 13:02:01;;;;;;;15.85;9.43;;;;;;;;;;13172095;22;19998;-81
2022/01/04 13:07:04;;;;;;;9.45;6.93;;;;;;;;;;13168184;22;20013;-80
2022/01/04 13:12:06;;;;;;;9.52;6.32;;;;;;;;;;13193335;22;20399;-80
2022/01/04 13:17:07;;;;;;;9.98;6.63;;;;;;;;;;13194177;22;20334;-80
2022/01/04 13:22:13;;;;;;;9.10;7.95;;;;;;;;;;13195676;22;20001;-80
2022/01/04 13:27:19;;;;;;;8.55;7.40;;;;;;;;;;13167075;22;20028;-80
2022/01/04 13:32:31;;;;;;;8.88;6.20;;;;;;;;;;13165536;22;20002;-80
2022/01/04 13:37:33;;;;;;;8.93;7.28;;;;;;;;;;13164134;22;20101;-79
2022/01/04 13:42:38;;;;;;;10.15;7.82;;;;;;;;;;13190944;22;20050;-79
2022/01/04 13:47:41;;;;;;;7.90;5.95;;;;;;;;;;13191148;22;20002;-79
2022/01/04 13:52:42;;;;;;;6.95;5.47;;;;;;;;;;13168568;22;20012;-81
2022/01/04 13:57:43;;;;;;;11.93;8.65;;;;;;;;;;13170541;22;20006;-81
2022/01/04 14:02:47;;;;;;;7.22;5.05;;;;;;;;;;13195302;22;19994;-81
2022/01/04 14:07:58;;;;;;;6.53;4.20;;;;;;;;;;13168804;22;20499;-81
2022/01/04 14:12:59;;;;;;;6.00;4.80;;;;;;;;;;13199181;22;20002;-82
2022/01/04 14:18:00;;;;;;;;;;;;;;;;;;13170282;22;20010;-80
2022/01/04 14:23:01;;;;;;;5.35;4.65;;;;;;;;;;13171681;22;19973;-81
2022/01/04 14:28:02;;;;;;;5.20;3.38;;;;;;;;;;13171322;22;20403;-81
2022/01/04 14:33:05;;;;;;;;;;;;;;;;;;13173143;22;20045;-80
2022/01/04 14:38:15;;;;;;;5.00;2.75;;;;;;;;;;13170137;22;19902;-82
2022/01/04 14:43:26;;;;;;;;;;;;;;;;;;;;;
2022/01/04 14:48:48;;;;;;;;;;;;;;;;;;;;;
2022/01/04 14:53:50;;;;;;;3.08;2.10;;;;;;;;;;13202771;22;20013;-80
2022/01/04 14:58:56;;;;;;;3.60;2.22;;;;;;;;;;13176469;22;20007;-82
2022/01/04 15:03:57;;;;;;;3.47;2.10;;;;;;;;;;13171006;22;20013;-81
2022/01/04 15:09:00;;;;;;;2.63;1.80;;;;;;;;;;13177511;22;20044;-79
2022/01/04 15:14:10;;;;;;;2.83;1.83;;;;;;;;;;13183192;22;20010;-81
2022/01/04 15:19:11;;;;;;;2.50;2.13;;;;;;;;;;13182477;22;20073;-80
2022/01/04 15:24:14;;;;;;;3.13;1.70;;;;;;;;;;13180139;22;20068;-80
2022/01/04 15:29:15;;;;;;;2.50;1.70;;;;;;;;;;13181563;22;20014;-79
2022/01/04 15:34:18;;;;;;;4.25;1.88;;;;;;;;;;13180050;22;19998;-80
2022/01/04 15:39:19;;;;;;;2.83;1.60;;;;;;;;;;13179365;22;20030;-80
2022/01/04 15:44:21;;;;;;;2.70;1.70;;;;;;;;;;13174472;22;20010;-79
2022/01/04 15:49:33;;;;;;;2.70;1.80;;;;;;;;;;13179902;22;19998;-78
2022/01/04 15:54:41;;;;;;;2.78;2.03;;;;;;;;;;13200554;22;20424;-80
2022/01/04 15:59:42;;;;;;;2.35;1.80;;;;;;;;;;13192062;22;20010;-80
2022/01/04 16:04:43;;;;;;;2.78;1.80;;;;;;;;;;13197280;22;20077;-79
2022/01/04 16:09:44;;;;;;;2.17;1.65;;;;;;;;;;13202575;22;20003;-78
2022/01/04 16:14:45;;;;;;;2.33;1.80;;;;;;;;;;13202229;22;20338;-78
2022/01/04 16:25:10;;;;;;;4.15;2.45;;;;;;;;;;13226725;22;20082;-79
2022/01/04 16:30:18;;;;;;;3.00;1.63;;;;;;;;;;13218503;22;20006;-80
2022/01/04 16:35:20;;;;;;;4.28;2.00;;;;;;;;;;13202554;22;20018;-80
2022/01/04 16:40:42;;;;;;;2.97;1.90;;;;;;;;;;13203125;22;20052;-80
2022/01/04 16:46:03;;;;;;;2.90;2.10;;;;;;;;;;13191722;22;20092;-80
2022/01/04 16:51:52;;;;;;;2.30;1.60;;;;;;;;;;13188337;22;20006;-79
2022/01/04 16:57:04;;;;;;;4.53;3.03;;;;;;;;;;13186560;22;20006;-80
2022/01/04 17:02:09;;;;;;;2.63;1.70;;;;;;;;;;13155607;22;20006;-80
2022/01/04 17:07:10;;;;;;;2.78;1.40;;;;;;;;;;13176149;22;20026;-80
2022/01/04 17:17:28;;;;;;;2.20;1.30;;;;;;;;;;13191495;22;20014;-82
2022/01/04 17:55:34;;;;;;;1.70;1.17;;;;;;;;;;13246773;22;20014;-84
2022/01/04 18:00:36;;;;;;;2.25;1.30;;;;;;;;;;13244053;22;20429;-84
2022/01/04 18:05:37;;;;;;;2.05;1.27;;;;;;;;;;13242260;22;20001;-83
2022/01/04 18:10:39;;;;;;;2.28;1.00;;;;;;;;;;13245990;22;19998;-84
2022/01/04 18:15:40;;;;;;;2.20;1.30;;;;;;;;;;13241828;22;20025;-83
2022/01/04 18:20:41;;;;;;;3.50;1.10;;;;;;;;;;13240468;22;20004;-84
2022/01/04 18:25:43;;;;;;;1.67;1.40;;;;;;;;;;13235887;22;20012;-84
2022/01/04 18:30:44;;;;;;;2.40;1.60;;;;;;;;;;13241270;22;20440;-83
2022/01/04 18:35:45;;;;;;;2.97;1.40;;;;;;;;;;13238802;22;20089;-84
2022/01/04 18:40:49;;;;;;;1.85;0.90;;;;;;;;;;13238184;22;19998;-84
2022/01/04 18:45:50;;;;;;;1.85;1.10;;;;;;;;;;13237751;22;20013;-84
2022/01/04 18:50:51;;;;;;;1.83;1.15;;;;;;;;;;13238312;22;20394;-84
2022/01/04 18:55:52;;;;;;;2.00;0.95;;;;;;;;;;13237588;22;20006;-84
2022/01/04 19:00:53;;;;;;;4.05;1.60;;;;;;;;;;13237513;22;19994;-84
2022/01/04 19:05:54;;;;;;;1.25;0.82;;;;;;;;;;13236471;22;20002;-84
2022/01/04 19:10:56;;;;;;;1.65;0.95;;;;;;;;;;13238069;22;20081;-84
2022/01/04 19:15:59;;;;;;;2.10;1.20;;;;;;;;;;13238494;22;20092;-84
2022/01/04 19:21:01;;;;;;;1.60;0.90;;;;;;;;;;13235973;22;20008;-84
2022/01/04 19:26:02;;;;;;;2.08;0.93;;;;;;;;;;13234094;22;20377;-84
2022/01/04 19:31:05;;;;;;;1.45;1.00;;;;;;;;;;13234337;22;20027;-84
2022/01/04 19:36:16;;;;;;;1.73;0.90;;;;;;;;;;13232521;22;20002;-83
2022/01/04 19:41:22;;;;;;;1.33;0.90;;;;;;;;;;13242462;22;19997;-81
2022/01/04 19:46:23;;;;;;;1.65;0.98;;;;;;;;;;13266038;22;20005;-83
2022/01/04 19:51:26;;;;;;;2.47;1.10;;;;;;;;;;13243617;22;20092;-83
2022/01/04 19:56:28;;;;;;;1.77;1.05;;;;;;;;;;13269433;22;20017;-83
2022/01/04 20:01:29;;;;;;;2.58;1.05;;;;;;;;;;13240122;22;20009;-83
2022/01/04 20:06:32;;;;;;;4.38;1.10;;;;;;;;;;13239281;22;20089;-83
2022/01/04 20:11:33;;;;;;;2.45;1.00;;;;;;;;;;13240572;22;20023;-83
2022/01/04 20:16:35;;;;;;;2.70;0.90;;;;;;;;;;13240252;22;20139;-83
2022/01/04 20:21:36;;;;;;;1.42;0.88;;;;;;;;;;13239871;22;19998;-83
2022/01/04 20:26:38;;;;;;;2.70;1.02;;;;;;;;;;13269379;22;20030;-83
2022/01/04 20:31:39;;;;;;;2.33;1.15;;;;;;;;;;13269976;22;19997;-82
2022/01/04 20:36:40;;;;;;;1.92;1.25;;;;;;;;;;13242269;22;20010;-83
2022/01/04 20:41:41;;;;;;;1.55;0.95;;;;;;;;;;13269705;22;20006;-84
2022/01/04 20:46:43;;;;;;;1.42;1.00;;;;;;;;;;13267507;22;20008;-85
2022/01/04 20:51:44;;;;;;;2.65;1.10;;;;;;;;;;13238410;22;20478;-84
2022/01/04 20:56:45;;;;;;;2.05;1.00;;;;;;;;;;13237615;22;20096;-85
2022/01/04 21:01:46;;;;;;;2.05;0.95;;;;;;;;;;13266865;22;19994;-84
2022/01/04 21:06:47;;;;;;;1.67;1.20;;;;;;;;;;13234476;22;20453;-84
2022/01/04 21:11:48;;;;;;;2.50;1.20;;;;;;;;;;13231476;22;20012;-84
